MSC Leanne — 3EXH3 — position and weather

sailwx.info

Track history (hours):
 
Tides and Currents Weather Stations Pressure Air Temp Water Temp Dewpoint Dewpoint Depression Visibility Wind Speed Wind Dir Waves Ship Positions

MSC Leanne

Last reported at 2016-Apr-11 21:07 UTC. Time now 2016-May-03 06:49 UTC.
Position N 26°19' W 079°20'.
Warning: this ship's position is 21 days out of date.

Length 294 m; draft 9.1 m.

Type: Ship (hazmat cat A). MMSI: 357723000.

Date/timePositionNaut miles runAvg speedWind from/ knotsBaromVisibWave heightAir tempDewpointWater temp
2016-Apr-11 21:07N 26°19' W 079°20'4 7.2
2016-Apr-11 20:33N 26°17' W 079°25'1312.9
2016-Apr-11 19:33N 26°13' W 079°38'1615.8
2016-Apr-11 18:33N 26°08' W 079°55'1111.1
2016-Apr-11 17:33N 26°06' W 080°07'1 1.4
2016-Apr-11 16:32N 26°04' W 080°07'0 0.0
2016-Apr-11 15:32N 26°04' W 080°07'0 0.0
2016-Apr-11 14:32N 26°04' W 080°07'0 0.0
2016-Apr-11 13:29N 26°04' W 080°07'0 0.0
2016-Apr-11 12:32N 26°04' W 080°07'0 0.0
2016-Apr-11 11:29N 26°04' W 080°07'0 0.0
2016-Apr-11 10:32N 26°04' W 080°07'0 0.0
2016-Apr-11 09:32N 26°04' W 080°07'0 0.0
2016-Apr-11 08:32N 26°04' W 080°07'1 1.3
2016-Apr-11 07:34N 26°05' W 080°07'6 6.2
2016-Apr-11 06:34N 26°08' W 080°01'1414.0
2016-Apr-11 05:33N 26°21' W 079°56'1313.1
2016-Apr-11 04:33N 26°34' W 079°55'1212.3
2016-Apr-11 03:33N 26°47' W 079°55'1212.0
2016-Apr-11 02:33N 26°59' W 079°54'  
2016-Apr-06 17:33N 39°29' W 073°55'1616.0
2016-Apr-06 16:33N 39°44' W 073°52'1615.9
2016-Apr-06 15:33N 40°00' W 073°51'2510.9
2016-Apr-06 13:14N 40°26' W 073°49'7 9.3
2016-Apr-06 12:27N 40°30' W 073°57'1112.3
2016-Apr-06 11:34N 40°39' W 074°05'3 3.4
2016-Apr-06 10:33N 40°41' W 074°09'0 0.3
2016-Apr-06 09:33N 40°41' W 074°09'0 0.0
2016-Apr-06 08:33N 40°41' W 074°09'0 0.0
2016-Apr-06 07:33N 40°41' W 074°09'0 0.0
2016-Apr-06 06:30N 40°41' W 074°09'0 0.0
2016-Apr-06 05:33N 40°41' W 074°09'0 0.0
2016-Apr-06 04:33N 40°41' W 074°09'0 0.0
2016-Apr-06 03:33N 40°41' W 074°09'0 0.0
2016-Apr-06 02:33N 40°41' W 074°09'0 0.0
2016-Apr-06 01:33N 40°41' W 074°09'0 0.0
2016-Apr-06 00:24N 40°41' W 074°09'0 0.0
2016-Apr-05 23:27N 40°41' W 074°09'0 0.0
2016-Apr-05 22:33N 40°41' W 074°09'0 0.0
2016-Apr-05 21:33N 40°41' W 074°09'0 0.0
2016-Apr-05 20:24N 40°41' W 074°09'0 0.0
2016-Apr-05 19:33N 40°41' W 074°09'0 0.0
2016-Apr-05 18:30N 40°41' W 074°09'0 0.0
2016-Apr-05 17:33N 40°41' W 074°09'0 0.0
2016-Apr-05 16:21N 40°41' W 074°09'0 0.0
2016-Apr-05 15:33N 40°41' W 074°09'0 0.0
2016-Apr-05 14:33N 40°41' W 074°09'0 0.0
2016-Apr-05 13:33N 40°41' W 074°09'1 0.8
2016-Apr-05 12:29N 40°40' W 074°08'4 4.2
2016-Apr-05 11:34N 40°39' W 074°04'4510.1
2016-Apr-05 07:08N 39°57' W 073°43'916.0
2016-Apr-05 06:34N 39°48' W 073°42'1515.0
2016-Apr-05 05:34N 39°34' W 073°49'1514.7
2016-Apr-05 04:34N 39°22' W 073°60'5012.6
2016-Apr-05 00:33N 38°46' W 074°45'1010.4
2016-Apr-04 23:33N 38°46' W 074°59'9 8.8
2016-Apr-04 22:33N 38°53' W 075°05'1515.2
2016-Apr-04 21:34N 39°07' W 075°13'1515.2
2016-Apr-04 20:34N 39°19' W 075°24'1615.5
2016-Apr-04 19:34N 39°33' W 075°33'1313.2
2016-Apr-04 18:33N 39°46' W 075°28'1111.5
2016-Apr-04 17:33N 39°51' W 075°15'6 5.7
2016-Apr-04 16:32N 39°54' W 075°08'0 0.0
2016-Apr-04 15:29N 39°54' W 075°08'0 0.0
2016-Apr-04 14:32N 39°54' W 075°08'0 0.0
2016-Apr-04 13:32N 39°54' W 075°08'0 0.0
2016-Apr-04 12:32N 39°54' W 075°08'0 0.0
2016-Apr-04 11:32N 39°54' W 075°08'0 0.0
2016-Apr-04 10:32N 39°54' W 075°08'0 0.0
2016-Apr-04 09:32N 39°54' W 075°08'0 0.0
2016-Apr-04 08:32N 39°54' W 075°08'0 0.0
2016-Apr-04 07:32N 39°54' W 075°08'0 0.0
2016-Apr-04 06:32N 39°54' W 075°08'0 0.0
2016-Apr-04 05:32N 39°54' W 075°08'0 0.0
2016-Apr-04 04:32N 39°54' W 075°08'0 0.0
2016-Apr-04 03:32N 39°54' W 075°08'0 0.0
2016-Apr-04 02:32N 39°54' W 075°08'1 0.8
2016-Apr-04 01:34N 39°53' W 075°08'8 7.8
2016-Apr-04 00:33N 39°51' W 075°18'1111.5
2016-Apr-03 23:34N 39°44' W 075°30'1312.9
2016-Apr-03 22:33N 39°31' W 075°33'1515.5
2016-Apr-03 21:33N 39°18' W 075°23'1616.4
2016-Apr-03 20:33N 39°04' W 075°11'1413.6
2016-Apr-03 19:34N 38°51' W 075°06'0 0.1
2016-Apr-03 18:33N 38°51' W 075°06'0 0.1
2016-Apr-03 17:33N 38°51' W 075°06'0 0.0
2016-Apr-03 16:30N 38°51' W 075°06'1 0.8
2016-Apr-03 15:33N 38°51' W 075°05'7 6.7
2016-Apr-03 14:33N 38°46' W 074°59'10 9.7
2016-Apr-03 13:33N 38°39' W 074°51'1111.3
2016-Apr-03 12:33N 38°30' W 074°42'  
Track history (hours):
 
Tides and Currents Weather Stations Pressure Air Temp Water Temp Dewpoint Dewpoint Depression Visibility Wind Speed Wind Dir Waves Ship Positions

MSC Leanne

Last reported at 2016-Apr-11 21:07 UTC. Time now 2016-May-03 06:49 UTC.
Position N 26°19' W 079°20'.
Warning: this ship's position is 21 days out of date.

Length 294 m; draft 9.1 m.

Type: Ship (hazmat cat A). MMSI: 357723000.

Date/timePositionNaut miles runAvg speedWind from/ knotsBaromVisibWave heightAir tempDewpointWater temp
2016-Apr-11 21:07N 26°19' W 079°20'4 7.2
2016-Apr-11 20:33N 26°17' W 079°25'1312.9
2016-Apr-11 19:33N 26°13' W 079°38'1615.8
2016-Apr-11 18:33N 26°08' W 079°55'1111.1
2016-Apr-11 17:33N 26°06' W 080°07'1 1.4
2016-Apr-11 16:32N 26°04' W 080°07'0 0.0
2016-Apr-11 15:32N 26°04' W 080°07'0 0.0
2016-Apr-11 14:32N 26°04' W 080°07'0 0.0
2016-Apr-11 13:29N 26°04' W 080°07'0 0.0
2016-Apr-11 12:32N 26°04' W 080°07'0 0.0
2016-Apr-11 11:29N 26°04' W 080°07'0 0.0
2016-Apr-11 10:32N 26°04' W 080°07'0 0.0
2016-Apr-11 09:32N 26°04' W 080°07'0 0.0
2016-Apr-11 08:32N 26°04' W 080°07'1 1.3
2016-Apr-11 07:34N 26°05' W 080°07'6 6.2
2016-Apr-11 06:34N 26°08' W 080°01'1414.0
2016-Apr-11 05:33N 26°21' W 079°56'1313.1
2016-Apr-11 04:33N 26°34' W 079°55'1212.3
2016-Apr-11 03:33N 26°47' W 079°55'1212.0
2016-Apr-11 02:33N 26°59' W 079°54'  
2016-Apr-06 17:33N 39°29' W 073°55'1616.0
2016-Apr-06 16:33N 39°44' W 073°52'1615.9
2016-Apr-06 15:33N 40°00' W 073°51'2510.9
2016-Apr-06 13:14N 40°26' W 073°49'7 9.3
2016-Apr-06 12:27N 40°30' W 073°57'1112.3
2016-Apr-06 11:34N 40°39' W 074°05'3 3.4
2016-Apr-06 10:33N 40°41' W 074°09'0 0.3
2016-Apr-06 09:33N 40°41' W 074°09'0 0.0
2016-Apr-06 08:33N 40°41' W 074°09'0 0.0
2016-Apr-06 07:33N 40°41' W 074°09'0 0.0
2016-Apr-06 06:30N 40°41' W 074°09'0 0.0
2016-Apr-06 05:33N 40°41' W 074°09'0 0.0
2016-Apr-06 04:33N 40°41' W 074°09'0 0.0
2016-Apr-06 03:33N 40°41' W 074°09'0 0.0
2016-Apr-06 02:33N 40°41' W 074°09'0 0.0
2016-Apr-06 01:33N 40°41' W 074°09'0 0.0
2016-Apr-06 00:24N 40°41' W 074°09'0 0.0
2016-Apr-05 23:27N 40°41' W 074°09'0 0.0
2016-Apr-05 22:33N 40°41' W 074°09'0 0.0
2016-Apr-05 21:33N 40°41' W 074°09'0 0.0
2016-Apr-05 20:24N 40°41' W 074°09'0 0.0
2016-Apr-05 19:33N 40°41' W 074°09'0 0.0
2016-Apr-05 18:30N 40°41' W 074°09'0 0.0
2016-Apr-05 17:33N 40°41' W 074°09'0 0.0
2016-Apr-05 16:21N 40°41' W 074°09'0 0.0
2016-Apr-05 15:33N 40°41' W 074°09'0 0.0
2016-Apr-05 14:33N 40°41' W 074°09'0 0.0
2016-Apr-05 13:33N 40°41' W 074°09'1 0.8
2016-Apr-05 12:29N 40°40' W 074°08'4 4.2
2016-Apr-05 11:34N 40°39' W 074°04'4510.1
2016-Apr-05 07:08N 39°57' W 073°43'916.0
2016-Apr-05 06:34N 39°48' W 073°42'1515.0
2016-Apr-05 05:34N 39°34' W 073°49'1514.7
2016-Apr-05 04:34N 39°22' W 073°60'5012.6
2016-Apr-05 00:33N 38°46' W 074°45'1010.4
2016-Apr-04 23:33N 38°46' W 074°59'9 8.8
2016-Apr-04 22:33N 38°53' W 075°05'1515.2
2016-Apr-04 21:34N 39°07' W 075°13'1515.2
2016-Apr-04 20:34N 39°19' W 075°24'1615.5
2016-Apr-04 19:34N 39°33' W 075°33'1313.2
2016-Apr-04 18:33N 39°46' W 075°28'1111.5
2016-Apr-04 17:33N 39°51' W 075°15'6 5.7
2016-Apr-04 16:32N 39°54' W 075°08'0 0.0
2016-Apr-04 15:29N 39°54' W 075°08'0 0.0
2016-Apr-04 14:32N 39°54' W 075°08'0 0.0
2016-Apr-04 13:32N 39°54' W 075°08'0 0.0
2016-Apr-04 12:32N 39°54' W 075°08'0 0.0
2016-Apr-04 11:32N 39°54' W 075°08'0 0.0
2016-Apr-04 10:32N 39°54' W 075°08'0 0.0
2016-Apr-04 09:32N 39°54' W 075°08'0 0.0
2016-Apr-04 08:32N 39°54' W 075°08'0 0.0
2016-Apr-04 07:32N 39°54' W 075°08'0 0.0
2016-Apr-04 06:32N 39°54' W 075°08'0 0.0
2016-Apr-04 05:32N 39°54' W 075°08'0 0.0
2016-Apr-04 04:32N 39°54' W 075°08'0 0.0
2016-Apr-04 03:32N 39°54' W 075°08'0 0.0
2016-Apr-04 02:32N 39°54' W 075°08'1 0.8
2016-Apr-04 01:34N 39°53' W 075°08'8 7.8
2016-Apr-04 00:33N 39°51' W 075°18'1111.5
2016-Apr-03 23:34N 39°44' W 075°30'1312.9
2016-Apr-03 22:33N 39°31' W 075°33'1515.5
2016-Apr-03 21:33N 39°18' W 075°23'1616.4
2016-Apr-03 20:33N 39°04' W 075°11'1413.6
2016-Apr-03 19:34N 38°51' W 075°06'0 0.1
2016-Apr-03 18:33N 38°51' W 075°06'0 0.1
2016-Apr-03 17:33N 38°51' W 075°06'0 0.0
2016-Apr-03 16:30N 38°51' W 075°06'1 0.8
2016-Apr-03 15:33N 38°51' W 075°05'7 6.7
2016-Apr-03 14:33N 38°46' W 074°59'10 9.7
2016-Apr-03 13:33N 38°39' W 074°51'1111.3
2016-Apr-03 12:33N 38°30' W 074°42'  

Dump ship's entire track history